Saudia B772 at Riyadh on Feb 27th 2014, burst tyres on landing

Last Update: February 27, 2014 / 17:00:46 GMT/Zulu time

Bookmark this article
Incident Facts

Date of incident
Feb 27, 2014

Classification
Incident

Flight number
SV-713

Aircraft Registration
HZ-AKV

Aircraft Type
Boeing 777-200

ICAO Type Designator
B772

A Saudi Arabian Airlines Boeing 777-200, registration HZ-AKV performing flight SV-713 from Karachi (Pakistan) to Riyadh (Saudi Arabia) with 266 passengers and 14 crew, burst a number of tyres while landing at Riyadh Airport at 11:02L (08:02Z). The aircraft came to a safe stop. No injuries and no damage beyond the tyres are being reported.

There are rumours in Pakistan the aircraft had crashed while landing in Riyadh.

Saudi Arabia's Accident Investigation Board (AIB) is looking into the occurrence to decide whether an investigation will be opened.

A replacement Boeing 777-200 registration HZ-AKP continued the flight to Madinah (Saudi Arabia), the final destination of the flight.

Metars:
OERK 271000Z 01005KT CAVOK 27/07 Q1018 NOSIG
OERK 270900Z 30002KT CAVOK 26/06 Q1019 NOSIG
OERK 270800Z 36006KT CAVOK 23/06 Q1020 NOSIG
OERK 270700Z 01005KT CAVOK 21/07 Q1020 NOSIG
OERK 270600Z 35005KT CAVOK 19/06 Q1020 NOSIG
OERK 270500Z 32005KT CAVOK 18/07 Q1020 NOSIG
Incident Facts

Date of incident
Feb 27, 2014

Classification
Incident

Flight number
SV-713

Aircraft Registration
HZ-AKV

Aircraft Type
Boeing 777-200

ICAO Type Designator
B772

This article is published under license from Avherald.com. © of text by Avherald.com.
Article source

You can read 2 more free articles without a subscription.

Subscribe now and continue reading without any limits!

Are you a subscriber? Login
Subscribe

Read unlimited articles and receive our daily update briefing. Gain better insights into what is happening in commercial aviation safety.

Free newsletter

Want to know more and stay ahead? Get our free weekly newsletter and join 5282 existing subscribers.

By subscribing, you accept our terms and conditions and confirm that you've read our privacy policy.

Send tip

Support AeroInside by sending a small tip amount.

Related articles

Newest articles

Subscribe today

Are you researching aviation incidents? Get access to AeroInside Insights, unlimited read access and receive the daily newsletter.

Pick your plan and subscribe

Partner

Blockaviation logo

A new way to document and demonstrate airworthiness compliance and aircraft value. Find out more.

Virtual Speech logo

ELITE Simulation Solutions is a leading global provider of Flight Simulation Training Devices, IFR training software as well as flight controls and related services. Find out more.

Get updates

Never miss an article from AeroInside. Subscribe to our free weekly newsletter and join 5282 existing subscribers.

By subscribing, you accept our terms and conditions and that you've read our privacy policy.

AeroInside Blog
Popular aircraft
Airbus A320
Boeing 737-800
Boeing 737-800 MAX
Popular airlines
American Airlines
United
Delta
Air Canada
Lufthansa
British Airways